sensor_id;sensor_type;location;lat;lon;timestamp;P1;durP1;ratioP1;P2;durP2;ratioP2
60935;SDS011;46804;51.786;19.520;2022-10-15T00:02:57;84.32;;;36.47;;
60935;SDS011;46804;51.786;19.520;2022-10-15T00:06:58;82.30;;;34.15;;
60935;SDS011;46804;51.786;19.520;2022-10-15T00:11:06;79.13;;;35.25;;
60935;SDS011;46804;51.786;19.520;2022-10-15T00:15:11;74.22;;;36.15;;
60935;SDS011;46804;51.786;19.520;2022-10-15T00:19:13;85.93;;;37.35;;
60935;SDS011;46804;51.786;19.520;2022-10-15T00:23:14;95.15;;;38.50;;
60935;SDS011;46804;51.786;19.520;2022-10-15T00:27:14;76.78;;;35.38;;
60935;SDS011;46804;51.786;19.520;2022-10-15T00:31:15;91.18;;;36.13;;
60935;SDS011;46804;51.786;19.520;2022-10-15T00:35:19;92.18;;;36.10;;
60935;SDS011;46804;51.786;19.520;2022-10-15T00:39:19;86.45;;;37.78;;
60935;SDS011;46804;51.786;19.520;2022-10-15T00:43:36;82.80;;;37.63;;
60935;SDS011;46804;51.786;19.520;2022-10-15T00:47:45;100.93;;;39.20;;
60935;SDS011;46804;51.786;19.520;2022-10-15T00:51:51;103.53;;;39.28;;
60935;SDS011;46804;51.786;19.520;2022-10-15T00:55:55;85.38;;;37.70;;
60935;SDS011;46804;51.786;19.520;2022-10-15T00:59:56;89.53;;;36.58;;
60935;SDS011;46804;51.786;19.520;2022-10-15T01:04:00;93.55;;;36.78;;
60935;SDS011;46804;51.786;19.520;2022-10-15T01:08:02;90.28;;;37.13;;
60935;SDS011;46804;51.786;19.520;2022-10-15T01:12:02;95.43;;;35.47;;
60935;SDS011;46804;51.786;19.520;2022-10-15T01:16:11;98.97;;;37.95;;
60935;SDS011;46804;51.786;19.520;2022-10-15T01:20:22;89.15;;;37.75;;
60935;SDS011;46804;51.786;19.520;2022-10-15T01:24:41;91.47;;;36.78;;
60935;SDS011;46804;51.786;19.520;2022-10-15T01:33:24;94.53;;;38.92;;
60935;SDS011;46804;51.786;19.520;2022-10-15T01:37:40;83.03;;;35.72;;
60935;SDS011;46804;51.786;19.520;2022-10-15T01:41:53;89.85;;;36.38;;
60935;SDS011;46804;51.786;19.520;2022-10-15T01:45:59;94.55;;;39.80;;
60935;SDS011;46804;51.786;19.520;2022-10-15T01:50:05;96.25;;;38.17;;
60935;SDS011;46804;51.786;19.520;2022-10-15T01:54:11;94.60;;;39.22;;
60935;SDS011;46804;51.786;19.520;2022-10-15T01:58:15;96.10;;;38.58;;
60935;SDS011;46804;51.786;19.520;2022-10-15T02:02:16;90.72;;;37.15;;
60935;SDS011;46804;51.786;19.520;2022-10-15T02:06:19;90.55;;;40.40;;
60935;SDS011;46804;51.786;19.520;2022-10-15T02:10:30;108.07;;;45.92;;
60935;SDS011;46804;51.786;19.520;2022-10-15T02:14:53;99.18;;;39.15;;
60935;SDS011;46804;51.786;19.520;2022-10-15T02:23:53;92.72;;;39.17;;
60935;SDS011;46804;51.786;19.520;2022-10-15T02:27:58;109.75;;;42.90;;
60935;SDS011;46804;51.786;19.520;2022-10-15T02:31:59;88.95;;;38.78;;
60935;SDS011;46804;51.786;19.520;2022-10-15T02:36:01;111.85;;;43.40;;
60935;SDS011;46804;51.786;19.520;2022-10-15T02:40:02;96.15;;;42.47;;
60935;SDS011;46804;51.786;19.520;2022-10-15T02:44:03;102.55;;;42.20;;
60935;SDS011;46804;51.786;19.520;2022-10-15T02:48:04;95.55;;;42.03;;
60935;SDS011;46804;51.786;19.520;2022-10-15T02:52:05;95.00;;;38.78;;
60935;SDS011;46804;51.786;19.520;2022-10-15T02:56:06;96.95;;;41.95;;
60935;SDS011;46804;51.786;19.520;2022-10-15T03:00:06;114.32;;;45.67;;
60935;SDS011;46804;51.786;19.520;2022-10-15T03:04:08;98.93;;;40.70;;
60935;SDS011;46804;51.786;19.520;2022-10-15T03:08:08;97.78;;;39.28;;
60935;SDS011;46804;51.786;19.520;2022-10-15T03:12:09;94.28;;;38.45;;
60935;SDS011;46804;51.786;19.520;2022-10-15T03:16:09;105.57;;;41.85;;
60935;SDS011;46804;51.786;19.520;2022-10-15T03:20:11;80.85;;;36.35;;
60935;SDS011;46804;51.786;19.520;2022-10-15T03:24:11;94.63;;;38.45;;
60935;SDS011;46804;51.786;19.520;2022-10-15T03:28:12;86.43;;;39.10;;
60935;SDS011;46804;51.786;19.520;2022-10-15T03:32:12;92.22;;;34.67;;
60935;SDS011;46804;51.786;19.520;2022-10-15T03:36:13;93.20;;;36.35;;
60935;SDS011;46804;51.786;19.520;2022-10-15T03:40:13;77.78;;;34.58;;
60935;SDS011;46804;51.786;19.520;2022-10-15T03:44:14;82.95;;;35.60;;
60935;SDS011;46804;51.786;19.520;2022-10-15T03:48:14;86.10;;;38.35;;
60935;SDS011;46804;51.786;19.520;2022-10-15T03:52:15;82.68;;;34.97;;
60935;SDS011;46804;51.786;19.520;2022-10-15T03:56:16;86.22;;;35.70;;
60935;SDS011;46804;51.786;19.520;2022-10-15T04:00:17;79.78;;;34.33;;
60935;SDS011;46804;51.786;19.520;2022-10-15T04:04:17;78.38;;;35.35;;
60935;SDS011;46804;51.786;19.520;2022-10-15T04:08:18;85.43;;;35.33;;
60935;SDS011;46804;51.786;19.520;2022-10-15T04:12:18;83.50;;;35.40;;
60935;SDS011;46804;51.786;19.520;2022-10-15T04:16:19;80.45;;;34.50;;
60935;SDS011;46804;51.786;19.520;2022-10-15T04:20:19;100.13;;;40.95;;
60935;SDS011;46804;51.786;19.520;2022-10-15T04:24:20;91.18;;;37.35;;
60935;SDS011;46804;51.786;19.520;2022-10-15T04:28:21;91.70;;;39.03;;
60935;SDS011;46804;51.786;19.520;2022-10-15T04:32:21;98.75;;;38.55;;
60935;SDS011;46804;51.786;19.520;2022-10-15T04:36:22;96.22;;;35.28;;
60935;SDS011;46804;51.786;19.520;2022-10-15T04:40:22;93.53;;;38.47;;
60935;SDS011;46804;51.786;19.520;2022-10-15T04:44:23;100.82;;;38.40;;
60935;SDS011;46804;51.786;19.520;2022-10-15T04:48:24;103.35;;;36.92;;
60935;SDS011;46804;51.786;19.520;2022-10-15T04:52:24;97.90;;;36.67;;
60935;SDS011;46804;51.786;19.520;2022-10-15T04:56:25;89.63;;;38.10;;
60935;SDS011;46804;51.786;19.520;2022-10-15T05:00:26;93.82;;;38.90;;
60935;SDS011;46804;51.786;19.520;2022-10-15T05:04:26;91.75;;;36.20;;
60935;SDS011;46804;51.786;19.520;2022-10-15T05:08:27;95.47;;;37.70;;
60935;SDS011;46804;51.786;19.520;2022-10-15T05:12:32;97.88;;;38.53;;
60935;SDS011;46804;51.786;19.520;2022-10-15T05:16:32;90.18;;;36.80;;
60935;SDS011;46804;51.786;19.520;2022-10-15T05:20:33;103.57;;;39.45;;
60935;SDS011;46804;51.786;19.520;2022-10-15T05:24:33;95.93;;;35.85;;
60935;SDS011;46804;51.786;19.520;2022-10-15T05:28:34;102.97;;;37.95;;
60935;SDS011;46804;51.786;19.520;2022-10-15T05:32:35;118.07;;;43.95;;
60935;SDS011;46804;51.786;19.520;2022-10-15T05:36:36;110.80;;;39.25;;
60935;SDS011;46804;51.786;19.520;2022-10-15T05:40:36;101.32;;;38.83;;
60935;SDS011;46804;51.786;19.520;2022-10-15T05:44:37;100.38;;;39.60;;
60935;SDS011;46804;51.786;19.520;2022-10-15T05:48:38;105.63;;;40.33;;
60935;SDS011;46804;51.786;19.520;2022-10-15T05:52:39;104.20;;;41.97;;
60935;SDS011;46804;51.786;19.520;2022-10-15T05:56:39;106.18;;;40.75;;
60935;SDS011;46804;51.786;19.520;2022-10-15T06:00:40;118.38;;;43.75;;
60935;SDS011;46804;51.786;19.520;2022-10-15T06:04:43;120.28;;;41.22;;
60935;SDS011;46804;51.786;19.520;2022-10-15T06:12:48;114.53;;;42.20;;
60935;SDS011;46804;51.786;19.520;2022-10-15T06:16:50;111.18;;;41.97;;
60935;SDS011;46804;51.786;19.520;2022-10-15T06:20:56;106.63;;;40.30;;
60935;SDS011;46804;51.786;19.520;2022-10-15T06:24:57;105.60;;;41.30;;
60935;SDS011;46804;51.786;19.520;2022-10-15T06:28:58;102.13;;;41.53;;
60935;SDS011;46804;51.786;19.520;2022-10-15T06:32:59;85.50;;;39.40;;
60935;SDS011;46804;51.786;19.520;2022-10-15T06:37:00;83.75;;;38.10;;
60935;SDS011;46804;51.786;19.520;2022-10-15T06:41:10;76.03;;;33.67;;
60935;SDS011;46804;51.786;19.520;2022-10-15T06:45:17;70.38;;;32.22;;
60935;SDS011;46804;51.786;19.520;2022-10-15T06:49:18;63.25;;;31.10;;
60935;SDS011;46804;51.786;19.520;2022-10-15T06:53:18;64.53;;;31.65;;
60935;SDS011;46804;51.786;19.520;2022-10-15T06:57:19;62.80;;;30.40;;
60935;SDS011;46804;51.786;19.520;2022-10-15T07:01:20;54.92;;;29.85;;
60935;SDS011;46804;51.786;19.520;2022-10-15T07:05:21;57.70;;;29.63;;
60935;SDS011;46804;51.786;19.520;2022-10-15T07:09:21;58.63;;;30.48;;
60935;SDS011;46804;51.786;19.520;2022-10-15T07:13:22;56.63;;;29.38;;
60935;SDS011;46804;51.786;19.520;2022-10-15T07:17:23;60.22;;;32.22;;
60935;SDS011;46804;51.786;19.520;2022-10-15T07:21:23;60.65;;;31.58;;
60935;SDS011;46804;51.786;19.520;2022-10-15T07:25:24;59.75;;;29.60;;
60935;SDS011;46804;51.786;19.520;2022-10-15T07:29:26;60.03;;;28.75;;
60935;SDS011;46804;51.786;19.520;2022-10-15T07:33:26;52.28;;;27.65;;
60935;SDS011;46804;51.786;19.520;2022-10-15T07:37:27;54.25;;;30.13;;
60935;SDS011;46804;51.786;19.520;2022-10-15T07:41:29;48.55;;;26.00;;
60935;SDS011;46804;51.786;19.520;2022-10-15T07:45:30;50.72;;;27.35;;
60935;SDS011;46804;51.786;19.520;2022-10-15T07:49:30;53.08;;;27.80;;
60935;SDS011;46804;51.786;19.520;2022-10-15T07:53:31;52.50;;;28.90;;
60935;SDS011;46804;51.786;19.520;2022-10-15T07:57:33;62.00;;;29.15;;
60935;SDS011;46804;51.786;19.520;2022-10-15T08:01:33;46.22;;;27.33;;
60935;SDS011;46804;51.786;19.520;2022-10-15T08:05:34;49.70;;;27.25;;
60935;SDS011;46804;51.786;19.520;2022-10-15T08:09:34;53.05;;;27.60;;
60935;SDS011;46804;51.786;19.520;2022-10-15T08:13:35;44.97;;;25.70;;
60935;SDS011;46804;51.786;19.520;2022-10-15T08:17:38;40.30;;;22.97;;
60935;SDS011;46804;51.786;19.520;2022-10-15T08:21:38;45.30;;;24.30;;
60935;SDS011;46804;51.786;19.520;2022-10-15T08:25:39;38.95;;;22.27;;
60935;SDS011;46804;51.786;19.520;2022-10-15T08:29:40;37.95;;;22.33;;
60935;SDS011;46804;51.786;19.520;2022-10-15T08:33:40;36.88;;;21.98;;
60935;SDS011;46804;51.786;19.520;2022-10-15T08:37:41;38.80;;;23.42;;
60935;SDS011;46804;51.786;19.520;2022-10-15T08:41:43;34.58;;;21.05;;
60935;SDS011;46804;51.786;19.520;2022-10-15T08:45:48;36.25;;;20.60;;
60935;SDS011;46804;51.786;19.520;2022-10-15T08:49:52;35.33;;;21.58;;
60935;SDS011;46804;51.786;19.520;2022-10-15T08:53:55;34.22;;;20.58;;
60935;SDS011;46804;51.786;19.520;2022-10-15T09:02:22;28.42;;;18.52;;
60935;SDS011;46804;51.786;19.520;2022-10-15T09:06:33;31.90;;;17.92;;
60935;SDS011;46804;51.786;19.520;2022-10-15T09:15:01;31.20;;;18.23;;
60935;SDS011;46804;51.786;19.520;2022-10-15T09:19:09;30.58;;;17.45;;
60935;SDS011;46804;51.786;19.520;2022-10-15T09:23:16;25.40;;;16.02;;
60935;SDS011;46804;51.786;19.520;2022-10-15T09:27:35;28.75;;;16.55;;
60935;SDS011;46804;51.786;19.520;2022-10-15T09:31:42;33.60;;;17.08;;
60935;SDS011;46804;51.786;19.520;2022-10-15T09:40:14;28.17;;;16.10;;
60935;SDS011;46804;51.786;19.520;2022-10-15T09:44:15;26.00;;;14.93;;
60935;SDS011;46804;51.786;19.520;2022-10-15T09:48:17;25.20;;;15.30;;
60935;SDS011;46804;51.786;19.520;2022-10-15T09:56:26;24.83;;;14.38;;
60935;SDS011;46804;51.786;19.520;2022-10-15T10:04:53;22.75;;;13.82;;
60935;SDS011;46804;51.786;19.520;2022-10-15T10:08:57;24.77;;;15.55;;
60935;SDS011;46804;51.786;19.520;2022-10-15T10:12:59;25.35;;;14.85;;
60935;SDS011;46804;51.786;19.520;2022-10-15T10:17:19;26.88;;;13.40;;
60935;SDS011;46804;51.786;19.520;2022-10-15T10:21:24;28.88;;;14.98;;
60935;SDS011;46804;51.786;19.520;2022-10-15T10:25:34;23.58;;;14.73;;
60935;SDS011;46804;51.786;19.520;2022-10-15T10:29:38;23.33;;;14.38;;
60935;SDS011;46804;51.786;19.520;2022-10-15T10:37:41;26.87;;;14.27;;
60935;SDS011;46804;51.786;19.520;2022-10-15T10:45:57;23.50;;;13.38;;
60935;SDS011;46804;51.786;19.520;2022-10-15T10:50:03;23.33;;;13.82;;
60935;SDS011;46804;51.786;19.520;2022-10-15T10:54:31;22.98;;;13.82;;
60935;SDS011;46804;51.786;19.520;2022-10-15T10:58:33;23.80;;;12.57;;
60935;SDS011;46804;51.786;19.520;2022-10-15T11:02:33;24.38;;;14.13;;
60935;SDS011;46804;51.786;19.520;2022-10-15T11:06:54;22.20;;;13.70;;
60935;SDS011;46804;51.786;19.520;2022-10-15T11:11:12;23.23;;;13.57;;
60935;SDS011;46804;51.786;19.520;2022-10-15T11:15:26;19.95;;;14.23;;
60935;SDS011;46804;51.786;19.520;2022-10-15T11:19:41;25.45;;;13.57;;
60935;SDS011;46804;51.786;19.520;2022-10-15T11:28:06;19.98;;;12.93;;
60935;SDS011;46804;51.786;19.520;2022-10-15T11:32:26;20.95;;;11.98;;
60935;SDS011;46804;51.786;19.520;2022-10-15T11:54:10;24.13;;;14.55;;
60935;SDS011;46804;51.786;19.520;2022-10-15T11:58:24;21.05;;;14.35;;
60935;SDS011;46804;51.786;19.520;2022-10-15T12:02:30;22.40;;;12.75;;
60935;SDS011;46804;51.786;19.520;2022-10-15T12:06:35;18.40;;;11.55;;
60935;SDS011;46804;51.786;19.520;2022-10-15T12:10:59;18.08;;;12.40;;
60935;SDS011;46804;51.786;19.520;2022-10-15T12:19:38;19.23;;;11.85;;
60935;SDS011;46804;51.786;19.520;2022-10-15T12:23:42;18.48;;;11.70;;
60935;SDS011;46804;51.786;19.520;2022-10-15T12:27:42;18.13;;;11.48;;
60935;SDS011;46804;51.786;19.520;2022-10-15T12:31:49;16.25;;;10.93;;
60935;SDS011;46804;51.786;19.520;2022-10-15T12:35:53;19.40;;;10.90;;
60935;SDS011;46804;51.786;19.520;2022-10-15T12:39:56;20.55;;;11.85;;
60935;SDS011;46804;51.786;19.520;2022-10-15T12:48:47;24.63;;;14.85;;
60935;SDS011;46804;51.786;19.520;2022-10-15T12:52:57;61.85;;;39.17;;
60935;SDS011;46804;51.786;19.520;2022-10-15T12:57:00;28.10;;;14.82;;
60935;SDS011;46804;51.786;19.520;2022-10-15T13:05:23;20.80;;;13.68;;
60935;SDS011;46804;51.786;19.520;2022-10-15T13:09:28;19.50;;;13.27;;
60935;SDS011;46804;51.786;19.520;2022-10-15T13:13:30;22.83;;;13.85;;
60935;SDS011;46804;51.786;19.520;2022-10-15T13:17:32;20.80;;;12.82;;
60935;SDS011;46804;51.786;19.520;2022-10-15T13:21:45;24.10;;;13.52;;
60935;SDS011;46804;51.786;19.520;2022-10-15T13:25:50;21.92;;;13.40;;
60935;SDS011;46804;51.786;19.520;2022-10-15T13:29:52;20.27;;;14.55;;
60935;SDS011;46804;51.786;19.520;2022-10-15T13:33:59;21.00;;;14.32;;
60935;SDS011;46804;51.786;19.520;2022-10-15T13:38:06;23.77;;;13.00;;
60935;SDS011;46804;51.786;19.520;2022-10-15T13:42:22;33.25;;;17.00;;
60935;SDS011;46804;51.786;19.520;2022-10-15T13:46:25;22.25;;;14.68;;
60935;SDS011;46804;51.786;19.520;2022-10-15T13:54:37;22.55;;;14.85;;
60935;SDS011;46804;51.786;19.520;2022-10-15T13:58:38;20.92;;;14.27;;
60935;SDS011;46804;51.786;19.520;2022-10-15T14:02:38;23.23;;;14.98;;
60935;SDS011;46804;51.786;19.520;2022-10-15T14:06:39;20.58;;;14.73;;
60935;SDS011;46804;51.786;19.520;2022-10-15T14:10:41;22.15;;;14.95;;
60935;SDS011;46804;51.786;19.520;2022-10-15T14:14:42;19.55;;;13.45;;
60935;SDS011;46804;51.786;19.520;2022-10-15T14:18:49;25.98;;;14.38;;
60935;SDS011;46804;51.786;19.520;2022-10-15T14:22:52;27.83;;;16.05;;
60935;SDS011;46804;51.786;19.520;2022-10-15T14:26:53;23.15;;;13.93;;
60935;SDS011;46804;51.786;19.520;2022-10-15T14:30:54;36.67;;;15.68;;
60935;SDS011;46804;51.786;19.520;2022-10-15T14:34:55;23.77;;;13.25;;
60935;SDS011;46804;51.786;19.520;2022-10-15T14:43:36;23.53;;;13.20;;
60935;SDS011;46804;51.786;19.520;2022-10-15T14:47:37;20.23;;;11.70;;
60935;SDS011;46804;51.786;19.520;2022-10-15T14:51:38;17.38;;;11.07;;
60935;SDS011;46804;51.786;19.520;2022-10-15T14:55:42;17.02;;;11.68;;
60935;SDS011;46804;51.786;19.520;2022-10-15T14:59:46;26.45;;;15.02;;
60935;SDS011;46804;51.786;19.520;2022-10-15T15:03:48;26.42;;;13.88;;
60935;SDS011;46804;51.786;19.520;2022-10-15T15:07:51;22.42;;;13.82;;
60935;SDS011;46804;51.786;19.520;2022-10-15T15:11:53;25.45;;;13.90;;
60935;SDS011;46804;51.786;19.520;2022-10-15T15:15:55;18.67;;;11.40;;
60935;SDS011;46804;51.786;19.520;2022-10-15T15:19:56;24.55;;;12.52;;
60935;SDS011;46804;51.786;19.520;2022-10-15T15:23:57;21.85;;;11.45;;
60935;SDS011;46804;51.786;19.520;2022-10-15T15:27:58;22.20;;;11.80;;
60935;SDS011;46804;51.786;19.520;2022-10-15T15:31:59;21.42;;;11.60;;
60935;SDS011;46804;51.786;19.520;2022-10-15T15:40:02;24.77;;;14.47;;
60935;SDS011;46804;51.786;19.520;2022-10-15T15:44:03;17.58;;;11.88;;
60935;SDS011;46804;51.786;19.520;2022-10-15T15:48:04;21.52;;;12.63;;
60935;SDS011;46804;51.786;19.520;2022-10-15T15:52:06;20.58;;;12.88;;
60935;SDS011;46804;51.786;19.520;2022-10-15T15:56:11;19.38;;;11.38;;
60935;SDS011;46804;51.786;19.520;2022-10-15T16:00:12;22.00;;;11.13;;
60935;SDS011;46804;51.786;19.520;2022-10-15T16:04:13;20.67;;;11.48;;
60935;SDS011;46804;51.786;19.520;2022-10-15T16:08:14;26.67;;;12.82;;
60935;SDS011;46804;51.786;19.520;2022-10-15T16:12:14;22.63;;;13.23;;
60935;SDS011;46804;51.786;19.520;2022-10-15T16:16:15;26.08;;;13.77;;
60935;SDS011;46804;51.786;19.520;2022-10-15T16:20:15;22.58;;;12.80;;
60935;SDS011;46804;51.786;19.520;2022-10-15T16:24:16;29.02;;;14.68;;
60935;SDS011;46804;51.786;19.520;2022-10-15T16:28:16;22.83;;;13.90;;
60935;SDS011;46804;51.786;19.520;2022-10-15T16:32:17;24.85;;;13.07;;
60935;SDS011;46804;51.786;19.520;2022-10-15T16:36:17;23.17;;;12.75;;
60935;SDS011;46804;51.786;19.520;2022-10-15T16:40:18;19.60;;;12.23;;
60935;SDS011;46804;51.786;19.520;2022-10-15T16:44:19;21.80;;;11.73;;
60935;SDS011;46804;51.786;19.520;2022-10-15T16:48:19;19.33;;;11.40;;
60935;SDS011;46804;51.786;19.520;2022-10-15T16:52:20;31.27;;;15.90;;
60935;SDS011;46804;51.786;19.520;2022-10-15T16:56:22;20.83;;;12.73;;
60935;SDS011;46804;51.786;19.520;2022-10-15T17:00:24;23.23;;;12.15;;
60935;SDS011;46804;51.786;19.520;2022-10-15T17:04:24;23.77;;;12.35;;
60935;SDS011;46804;51.786;19.520;2022-10-15T17:08:27;20.23;;;12.38;;
60935;SDS011;46804;51.786;19.520;2022-10-15T17:12:32;21.30;;;11.23;;
60935;SDS011;46804;51.786;19.520;2022-10-15T17:16:35;16.23;;;10.68;;
60935;SDS011;46804;51.786;19.520;2022-10-15T17:20:45;22.05;;;10.38;;
60935;SDS011;46804;51.786;19.520;2022-10-15T17:24:47;21.00;;;10.65;;
60935;SDS011;46804;51.786;19.520;2022-10-15T17:28:49;20.13;;;10.13;;
60935;SDS011;46804;51.786;19.520;2022-10-15T17:32:50;20.90;;;11.20;;
60935;SDS011;46804;51.786;19.520;2022-10-15T17:36:50;20.30;;;10.82;;
60935;SDS011;46804;51.786;19.520;2022-10-15T17:40:53;18.52;;;11.32;;
60935;SDS011;46804;51.786;19.520;2022-10-15T17:44:53;23.65;;;11.60;;
60935;SDS011;46804;51.786;19.520;2022-10-15T17:48:54;32.92;;;15.65;;
60935;SDS011;46804;51.786;19.520;2022-10-15T17:52:55;37.60;;;17.65;;
60935;SDS011;46804;51.786;19.520;2022-10-15T17:56:58;30.80;;;15.85;;
60935;SDS011;46804;51.786;19.520;2022-10-15T18:00:58;33.80;;;17.00;;
60935;SDS011;46804;51.786;19.520;2022-10-15T18:04:59;28.25;;;16.30;;
60935;SDS011;46804;51.786;19.520;2022-10-15T18:08:59;30.13;;;15.63;;
60935;SDS011;46804;51.786;19.520;2022-10-15T18:13:00;24.33;;;13.63;;
60935;SDS011;46804;51.786;19.520;2022-10-15T18:17:01;20.67;;;11.80;;
60935;SDS011;46804;51.786;19.520;2022-10-15T18:21:05;22.52;;;12.10;;
60935;SDS011;46804;51.786;19.520;2022-10-15T18:25:07;52.08;;;21.38;;
60935;SDS011;46804;51.786;19.520;2022-10-15T18:29:08;37.30;;;16.52;;
60935;SDS011;46804;51.786;19.520;2022-10-15T18:33:09;26.40;;;14.52;;
60935;SDS011;46804;51.786;19.520;2022-10-15T18:37:11;30.17;;;15.68;;
60935;SDS011;46804;51.786;19.520;2022-10-15T18:41:15;31.48;;;15.73;;
60935;SDS011;46804;51.786;19.520;2022-10-15T18:45:18;26.58;;;15.18;;
60935;SDS011;46804;51.786;19.520;2022-10-15T18:49:19;20.38;;;12.57;;
60935;SDS011;46804;51.786;19.520;2022-10-15T18:53:20;29.25;;;15.27;;
60935;SDS011;46804;51.786;19.520;2022-10-15T18:57:22;23.00;;;12.27;;
60935;SDS011;46804;51.786;19.520;2022-10-15T19:01:33;34.65;;;16.40;;
60935;SDS011;46804;51.786;19.520;2022-10-15T19:05:36;18.80;;;10.98;;
60935;SDS011;46804;51.786;19.520;2022-10-15T19:09:37;26.55;;;14.52;;
60935;SDS011;46804;51.786;19.520;2022-10-15T19:13:37;32.65;;;16.58;;
60935;SDS011;46804;51.786;19.520;2022-10-15T19:17:38;35.92;;;15.27;;
60935;SDS011;46804;51.786;19.520;2022-10-15T19:21:38;34.20;;;16.85;;
60935;SDS011;46804;51.786;19.520;2022-10-15T19:25:40;28.00;;;14.90;;
60935;SDS011;46804;51.786;19.520;2022-10-15T19:29:41;15.32;;;9.10;;
60935;SDS011;46804;51.786;19.520;2022-10-15T19:33:42;17.63;;;11.48;;
60935;SDS011;46804;51.786;19.520;2022-10-15T19:37:42;21.02;;;11.93;;
60935;SDS011;46804;51.786;19.520;2022-10-15T19:41:43;18.73;;;11.48;;
60935;SDS011;46804;51.786;19.520;2022-10-15T19:45:44;43.67;;;20.40;;
60935;SDS011;46804;51.786;19.520;2022-10-15T19:49:47;30.35;;;15.35;;
60935;SDS011;46804;51.786;19.520;2022-10-15T19:53:49;31.13;;;15.20;;
60935;SDS011;46804;51.786;19.520;2022-10-15T19:57:51;21.52;;;11.82;;
60935;SDS011;46804;51.786;19.520;2022-10-15T20:01:51;19.90;;;11.55;;
60935;SDS011;46804;51.786;19.520;2022-10-15T20:05:52;15.57;;;9.70;;
60935;SDS011;46804;51.786;19.520;2022-10-15T20:09:53;22.35;;;11.60;;
60935;SDS011;46804;51.786;19.520;2022-10-15T20:13:54;17.83;;;10.25;;
60935;SDS011;46804;51.786;19.520;2022-10-15T20:17:54;19.75;;;10.90;;
60935;SDS011;46804;51.786;19.520;2022-10-15T20:21:55;16.92;;;10.43;;
60935;SDS011;46804;51.786;19.520;2022-10-15T20:25:55;26.77;;;13.38;;
60935;SDS011;46804;51.786;19.520;2022-10-15T20:29:56;26.35;;;12.73;;
60935;SDS011;46804;51.786;19.520;2022-10-15T20:33:57;16.33;;;10.85;;
60935;SDS011;46804;51.786;19.520;2022-10-15T20:37:58;18.63;;;11.25;;
60935;SDS011;46804;51.786;19.520;2022-10-15T20:41:58;16.35;;;9.88;;
60935;SDS011;46804;51.786;19.520;2022-10-15T20:45:59;20.52;;;11.40;;
60935;SDS011;46804;51.786;19.520;2022-10-15T20:49:59;25.63;;;12.20;;
60935;SDS011;46804;51.786;19.520;2022-10-15T20:54:02;21.63;;;10.68;;
60935;SDS011;46804;51.786;19.520;2022-10-15T20:58:02;17.30;;;10.70;;
60935;SDS011;46804;51.786;19.520;2022-10-15T21:02:03;24.25;;;13.10;;
60935;SDS011;46804;51.786;19.520;2022-10-15T21:06:03;16.42;;;10.48;;
60935;SDS011;46804;51.786;19.520;2022-10-15T21:10:04;18.48;;;10.05;;
60935;SDS011;46804;51.786;19.520;2022-10-15T21:14:07;14.88;;;9.35;;
60935;SDS011;46804;51.786;19.520;2022-10-15T21:18:08;16.63;;;10.48;;
60935;SDS011;46804;51.786;19.520;2022-10-15T21:22:09;16.42;;;9.75;;
60935;SDS011;46804;51.786;19.520;2022-10-15T21:26:10;23.67;;;12.73;;
60935;SDS011;46804;51.786;19.520;2022-10-15T21:30:13;18.98;;;10.00;;
60935;SDS011;46804;51.786;19.520;2022-10-15T21:34:14;21.33;;;10.95;;
60935;SDS011;46804;51.786;19.520;2022-10-15T21:38:14;13.05;;;9.23;;
60935;SDS011;46804;51.786;19.520;2022-10-15T21:42:15;17.05;;;9.38;;
60935;SDS011;46804;51.786;19.520;2022-10-15T21:46:15;14.18;;;8.75;;
60935;SDS011;46804;51.786;19.520;2022-10-15T21:50:16;18.60;;;10.55;;
60935;SDS011;46804;51.786;19.520;2022-10-15T21:54:17;13.07;;;9.15;;
60935;SDS011;46804;51.786;19.520;2022-10-15T21:58:17;14.25;;;8.70;;
60935;SDS011;46804;51.786;19.520;2022-10-15T22:02:18;13.38;;;8.35;;
60935;SDS011;46804;51.786;19.520;2022-10-15T22:06:19;12.88;;;8.48;;
60935;SDS011;46804;51.786;19.520;2022-10-15T22:10:20;16.83;;;9.27;;
60935;SDS011;46804;51.786;19.520;2022-10-15T22:14:20;21.05;;;9.93;;
60935;SDS011;46804;51.786;19.520;2022-10-15T22:18:21;15.98;;;8.77;;
60935;SDS011;46804;51.786;19.520;2022-10-15T22:22:21;15.95;;;9.30;;
60935;SDS011;46804;51.786;19.520;2022-10-15T22:26:23;15.82;;;8.38;;
60935;SDS011;46804;51.786;19.520;2022-10-15T22:30:25;14.55;;;8.65;;
60935;SDS011;46804;51.786;19.520;2022-10-15T22:34:26;17.08;;;9.90;;
60935;SDS011;46804;51.786;19.520;2022-10-15T22:38:27;15.23;;;8.77;;
60935;SDS011;46804;51.786;19.520;2022-10-15T22:42:28;14.38;;;9.80;;
60935;SDS011;46804;51.786;19.520;2022-10-15T22:46:30;14.32;;;9.10;;
60935;SDS011;46804;51.786;19.520;2022-10-15T22:50:33;12.45;;;7.85;;
60935;SDS011;46804;51.786;19.520;2022-10-15T22:54:33;15.05;;;8.07;;
60935;SDS011;46804;51.786;19.520;2022-10-15T22:58:34;14.35;;;8.77;;
60935;SDS011;46804;51.786;19.520;2022-10-15T23:02:35;14.50;;;8.38;;
60935;SDS011;46804;51.786;19.520;2022-10-15T23:06:35;14.55;;;8.90;;
60935;SDS011;46804;51.786;19.520;2022-10-15T23:10:36;13.70;;;9.00;;
60935;SDS011;46804;51.786;19.520;2022-10-15T23:14:37;18.40;;;8.55;;
60935;SDS011;46804;51.786;19.520;2022-10-15T23:18:38;13.90;;;9.07;;
60935;SDS011;46804;51.786;19.520;2022-10-15T23:22:39;15.10;;;8.65;;
60935;SDS011;46804;51.786;19.520;2022-10-15T23:26:40;17.70;;;9.55;;
60935;SDS011;46804;51.786;19.520;2022-10-15T23:30:41;18.08;;;9.50;;
60935;SDS011;46804;51.786;19.520;2022-10-15T23:34:42;20.95;;;9.73;;
60935;SDS011;46804;51.786;19.520;2022-10-15T23:38:43;14.07;;;8.70;;
60935;SDS011;46804;51.786;19.520;2022-10-15T23:42:45;18.48;;;9.60;;
60935;SDS011;46804;51.786;19.520;2022-10-15T23:46:45;12.93;;;8.68;;
60935;SDS011;46804;51.786;19.520;2022-10-15T23:50:46;13.05;;;8.45;;
60935;SDS011;46804;51.786;19.520;2022-10-15T23:54:48;12.95;;;8.35;;
60935;SDS011;46804;51.786;19.520;2022-10-15T23:58:50;14.77;;;8.82;;
